Terminal Aerodrome Forecast
Issued by NWS

Current Version | Previous Version | Graphics & Text | Print | Product List | Glossary On
Versions: 1 2 3 4 5 6 7 8 9 10 11 12 13 14 15 16 17 18 19 20
000
FTUS41 KILN 261121
TAFLCK
TAF
KLCK 261121Z 2612/2712 21004KT P6SM VCSH SCT050 BKN200
     FM261800 30006KT P6SM VCSH BKN040
      TEMPO 2621/2623 5SM -TSRA BKN030CB
     FM270300 02004KT P6SM FEW040
     FM270700 00000KT P6SM SKC=

USA.gov is the U.S. government's official web portal to all federal, state and local government web resources and services.